Time;durP1;ratioP1;P1;durP2;ratioP2;P2;SDS_P1;SDS_P2;PMS_P1;PMS_P2;Temp;Humidity;BMP_temperature;BMP_pressure;BME280_temperature;BME280_humidity;BME280_pressure;Samples;Min_cycle;Max_cycle;Signal;HPM_P1;HPM_P2
2022/01/25 00:25:56;;;;;;;30.90;15.88;;;;;;;-9.24;74.70;99370.31;1777100;80;21415;-64
2022/01/25 00:28:25;;;;;;;37.67;19.67;;;;;;;-9.24;74.55;99362.06;1811715;78;20979;-62
2022/01/25 00:30:44;;;;;;;38.17;19.67;;;;;;;-9.23;74.59;99368.08;1809801;78;22822;-60
2022/01/25 00:32:56;;;;;;;35.23;18.82;;;;;;;-9.24;74.34;99359.94;1814902;78;20891;-61
2022/01/25 00:35:23;;;;;;;31.00;17.23;;;;;;;-9.26;74.55;99357.95;1817964;78;21719;-62
2022/01/25 00:37:50;;;;;;;29.00;17.02;;;;;;;-9.23;74.71;99355.11;1817386;78;20823;-65
2022/01/25 00:40:16;;;;;;;28.77;16.05;;;;;;;-9.23;74.65;99343.42;1820583;78;21089;-62
2022/01/25 00:42:43;;;;;;;34.15;16.50;;;;;;;-9.27;74.65;99344.63;1817512;78;20978;-60
2022/01/25 00:45:11;;;;;;;30.70;16.70;;;;;;;-9.28;74.77;99341.70;1818742;78;21010;-58
2022/01/25 00:47:41;;;;;;;27.00;16.27;;;;;;;-9.25;74.77;99338.82;1816667;78;21108;-61
2022/01/25 00:50:14;;;;;;;27.22;16.17;;;;;;;-9.24;74.76;99329.63;1818592;78;20842;-62
2022/01/25 00:55:04;;;;;;;28.12;15.25;;;;;;;-9.23;74.87;99330.45;1817506;78;20943;-60
2022/01/25 00:57:31;;;;;;;28.07;14.93;;;;;;;-9.26;75.01;99330.70;1818509;78;20918;-64
2022/01/25 00:59:57;;;;;;;28.50;15.68;;;;;;;-9.24;75.07;99324.91;1817244;78;21790;-64
2022/01/25 01:02:24;;;;;;;31.55;14.85;;;;;;;-9.24;75.04;99313.22;1816439;78;20824;-65
2022/01/25 01:04:51;;;;;;;28.85;15.10;;;;;;;-9.22;75.16;99312.61;1819167;78;20995;-64
2022/01/25 01:07:18;;;;;;;39.13;19.62;;;;;;;-9.21;75.13;99306.48;1817841;78;20914;-66
2022/01/25 01:09:48;;;;;;;66.70;29.67;;;;;;;-9.21;75.16;99310.38;1816893;78;20823;-59
2022/01/25 01:12:31;;;;;;;45.52;22.85;;;;;;;-9.21;74.89;99305.97;1816515;78;21490;-63
2022/01/25 01:15:15;;;;;;;56.90;26.82;;;;;;;-9.20;74.88;99304.20;1809862;78;20894;-62
2022/01/25 01:28:49;;;;;;;25.10;14.25;;;;;;;-9.21;74.68;99309.08;1814201;78;20898;-64
2022/01/25 01:37:00;;;;;;;32.45;17.82;;;;;;;-8.84;75.11;99285.39;1818176;78;21081;-64
2022/01/25 01:44:03;;;;;;;41.92;21.97;;;;;;;-8.79;74.83;99275.42;1816851;78;20871;-62
2022/01/25 01:46:40;;;;;;;44.27;23.47;;;;;;;-8.76;74.38;99276.42;1815471;78;20890;-60
2022/01/25 01:49:03;;;;;;;50.28;24.65;;;;;;;-8.80;74.11;99262.08;1811283;78;20970;-59
2022/01/25 01:51:35;;;;;;;47.33;25.12;;;;;;;-8.82;73.96;99257.98;1810492;78;21030;-63
2022/01/25 01:54:08;;;;;;;50.40;25.48;;;;;;;-8.83;73.90;99259.75;1812418;78;20848;-60
2022/01/25 01:56:35;;;;;;;48.87;24.65;;;;;;;-8.80;73.91;99253.46;1817006;78;20843;-59
2022/01/25 01:59:04;;;;;;;47.78;25.62;;;;;;;-8.75;73.81;99249.51;1817517;78;21010;-65
2022/01/25 02:01:32;;;;;;;43.28;22.55;;;;;;;-8.68;73.82;99249.77;1814832;78;20824;-62
2022/01/25 02:04:00;;;;;;;34.60;18.55;;;;;;;-8.62;73.90;99247.42;1818277;78;21106;-59
2022/01/25 02:06:27;;;;;;;34.92;19.95;;;;;;;-8.53;73.90;99234.09;1820348;78;20907;-59
2022/01/25 02:08:53;;;;;;;38.95;20.70;;;;;;;-8.44;73.99;99228.06;1819134;78;21399;-62
2022/01/25 02:11:20;;;;;;;31.25;18.23;;;;;;;-8.35;73.93;99231.11;1821275;78;20914;-63
2022/01/25 02:13:47;;;;;;;28.65;16.15;;;;;;;-8.27;73.99;99231.70;1819530;78;21474;-63
2022/01/25 02:24:31;;;;;;;24.45;12.30;;;;;;;-7.70;74.00;99210.64;1811250;78;21410;-60
2022/01/25 02:26:59;;;;;;;21.07;12.25;;;;;;;-7.63;73.70;99206.48;1821098;78;21388;-62
2022/01/25 02:29:25;;;;;;;21.42;13.05;;;;;;;-7.59;73.28;99193.52;1821812;78;21106;-59
2022/01/25 02:31:53;;;;;;;22.85;13.25;;;;;;;-7.57;73.08;99196.78;1820050;78;20895;-60
2022/01/25 02:34:20;;;;;;;22.32;13.55;;;;;;;-7.48;72.76;99197.67;1819478;78;21029;-59
2022/01/25 02:37:00;;;;;;;20.57;12.20;;;;;;;-7.41;72.27;99185.23;1820557;78;21490;-60
2022/01/25 02:39:27;;;;;;;22.45;12.65;;;;;;;-7.39;72.14;99179.39;1821292;78;20958;-63
2022/01/25 02:41:54;;;;;;;18.85;11.38;;;;;;;-7.38;72.23;99182.34;1808734;78;21074;-64
2022/01/25 02:44:26;;;;;;;20.65;11.78;;;;;;;-7.34;72.08;99190.18;1820898;78;21382;-60
2022/01/25 02:49:24;;;;;;;18.90;12.37;;;;;;;-7.31;71.74;99174.27;1807470;78;20954;-59
2022/01/25 02:51:51;;;;;;;19.07;11.08;;;;;;;-7.29;71.63;99186.66;1819092;78;21414;-61
2022/01/25 02:54:18;;;;;;;20.23;12.10;;;;;;;-7.27;71.59;99170.39;1821526;78;21073;-61
2022/01/25 02:56:45;;;;;;;20.02;12.70;;;;;;;-7.21;71.63;99171.12;1818308;78;20844;-61
2022/01/25 02:59:13;;;;;;;18.55;11.88;;;;;;;-7.24;70.92;99171.41;1820517;78;21378;-66
2022/01/25 03:01:41;;;;;;;23.00;13.13;;;;;;;-7.25;71.10;99161.95;1817723;78;20879;-61
2022/01/25 03:04:08;;;;;;;23.42;13.72;;;;;;;-7.28;71.03;99166.17;1821192;78;21472;-63
2022/01/25 03:06:35;;;;;;;23.92;13.72;;;;;;;-7.29;70.94;99158.49;1821428;78;21106;-60
2022/01/25 03:09:04;;;;;;;27.35;13.48;;;;;;;-7.29;70.93;99155.41;1820165;78;20852;-61
2022/01/25 03:11:31;;;;;;;23.20;13.25;;;;;;;-7.33;70.85;99144.97;1820699;78;20871;-66
2022/01/25 03:14:02;;;;;;;23.70;14.55;;;;;;;-7.37;70.98;99147.52;1820143;78;20975;-62
2022/01/25 03:16:44;;;;;;;25.20;14.87;;;;;;;-7.40;71.03;99145.23;1820138;78;21481;-63
2022/01/25 03:20:03;;;;;;;27.25;15.32;;;;;;;-7.43;71.09;99141.62;1818365;78;21110;-64
2022/01/25 03:21:38;;;;;;;29.37;16.30;;;;;;;-7.39;71.07;99142.95;1798204;78;21462;-64
2022/01/25 03:24:06;;;;;;;25.45;15.35;;;;;;;-7.36;71.17;99136.16;1821052;78;20863;-61
2022/01/25 03:26:35;;;;;;;27.90;16.65;;;;;;;-7.34;71.13;99134.21;1820677;78;21363;-59
2022/01/25 03:29:03;;;;;;;29.30;15.65;;;;;;;-7.37;71.12;99141.52;1821334;78;21486;-60
2022/01/25 03:31:29;;;;;;;24.63;15.15;;;;;;;-7.42;71.35;99141.97;1818581;78;21108;-62
2022/01/25 03:33:56;;;;;;;27.80;15.85;;;;;;;-7.39;71.51;99135.14;1820420;78;21544;-59
2022/01/25 03:36:23;;;;;;;25.80;14.65;;;;;;;-7.37;71.50;99138.91;1819374;78;20872;-61
2022/01/25 03:41:35;;;;;;;26.23;14.93;;;;;;;-7.39;71.65;99122.13;1729522;81;21010;-60
2022/01/25 03:44:03;;;;;;;29.27;15.18;;;;;;;-7.40;71.80;99124.89;1723194;81;21124;-64
2022/01/25 03:46:57;;;;;;;26.40;15.10;;;;;;;-7.35;71.90;99122.19;1756385;79;20978;-65
2022/01/25 03:51:43;;;;;;;23.25;14.58;;;;;;;-7.15;72.21;99122.33;1762283;79;21024;-61
2022/01/25 03:54:10;;;;;;;25.85;14.50;;;;;;;-7.06;72.15;99112.30;1758891;79;20991;-60
2022/01/25 03:56:37;;;;;;;27.87;13.40;;;;;;;-6.98;72.13;99109.77;1768983;80;21415;-64
2022/01/25 03:59:05;;;;;;;25.15;14.75;;;;;;;-6.98;72.05;99108.47;1747783;79;21014;-61
2022/01/25 04:01:36;;;;;;;28.17;14.93;;;;;;;-6.95;72.22;99102.94;1750038;79;20939;-63
2022/01/25 04:04:18;;;;;;;29.95;14.65;;;;;;;-6.88;72.28;99098.44;1771245;80;21566;-60
2022/01/25 04:06:48;;;;;;;28.50;14.95;;;;;;;-6.82;72.29;99089.52;1742881;80;20979;-64
2022/01/25 04:09:12;;;;;;;25.72;13.90;;;;;;;-6.73;72.29;99082.55;1767220;79;21120;-62
2022/01/25 04:11:39;;;;;;;25.15;15.13;;;;;;;-6.62;72.31;99084.91;1762879;80;20935;-60
2022/01/25 04:14:06;;;;;;;28.02;14.55;;;;;;;-6.51;72.32;99079.41;1756528;80;20895;-60
2022/01/25 04:16:37;;;;;;;28.20;14.87;;;;;;;-6.41;72.26;99081.42;1750861;79;20986;-63
2022/01/25 04:19:10;;;;;;;25.15;14.25;;;;;;;-6.35;72.38;99079.48;1749166;79;20963;-60
2022/01/25 04:26:50;;;;;;;27.85;15.10;;;;;;;-6.18;72.05;99066.84;1768455;78;20979;-63
2022/01/25 04:29:17;;;;;;;26.45;15.00;;;;;;;-6.17;72.04;99055.92;1768274;80;20885;-64
2022/01/25 04:31:44;;;;;;;24.25;14.78;;;;;;;-6.18;71.90;99042.06;1751118;79;20967;-60
2022/01/25 04:34:25;;;;;;;30.60;17.12;;;;;;;-6.16;72.11;99045.33;1769939;79;21109;-65
2022/01/25 04:50:45;;;;;;;32.10;16.97;;;;;;;-5.95;71.61;99041.78;1727167;81;21439;-61
2022/01/25 04:52:58;;;;;;;29.15;16.65;;;;;;;-5.96;71.63;99046.69;1711230;81;21563;-64
2022/01/25 04:55:44;;;;;;;32.10;17.70;;;;;;;-5.96;71.42;99042.78;1719911;81;21042;-62
2022/01/25 04:57:57;;;;;;;29.42;16.42;;;;;;;-5.95;71.48;99047.00;1705599;82;21633;-60
2022/01/25 05:00:21;;;;;;;30.62;17.12;;;;;;;-5.94;71.51;99048.65;1707992;83;21186;-60
2022/01/25 05:02:59;;;;;;;31.70;18.10;;;;;;;-5.92;71.40;99045.38;1708818;83;21033;-60
2022/01/25 05:05:30;;;;;;;32.15;17.27;;;;;;;-5.89;71.33;99032.03;1733688;81;21514;-60
2022/01/25 05:08:14;;;;;;;32.85;17.02;;;;;;;-5.89;71.34;99017.68;1717062;81;20895;-60
2022/01/25 05:10:26;;;;;;;28.42;16.45;;;;;;;-5.88;71.33;99023.20;1723521;81;20988;-60
2022/01/25 05:13:22;;;;;;;36.53;18.05;;;;;;;-5.88;71.37;99017.98;1731079;81;21120;-60
2022/01/25 05:16:03;;;;;;;31.57;17.85;;;;;;;-5.87;71.29;99019.63;1693820;82;20896;-64
2022/01/25 05:18:23;;;;;;;30.50;18.42;;;;;;;-5.90;71.34;99021.73;1696255;82;21054;-60
2022/01/25 05:23:31;;;;;;;36.75;20.95;;;;;;;-5.91;71.57;99010.47;1689123;83;26499;-62
2022/01/25 05:25:58;;;;;;;33.50;19.12;;;;;;;-5.91;71.75;99005.25;1686599;83;21738;-62
2022/01/25 05:28:25;;;;;;;35.45;19.62;;;;;;;-5.89;71.92;99005.11;1693607;83;21055;-61
2022/01/25 05:30:51;;;;;;;38.42;20.50;;;;;;;-5.90;71.96;98998.25;1686284;83;21427;-62
2022/01/25 05:33:18;;;;;;;36.68;19.57;;;;;;;-5.90;72.01;98998.25;1692379;81;20919;-60
2022/01/25 05:35:45;;;;;;;38.35;19.92;;;;;;;-5.94;72.16;98999.08;1694254;83;21047;-64
2022/01/25 05:38:12;;;;;;;37.88;19.82;;;;;;;-5.91;72.36;99002.64;1706399;82;21103;-62
2022/01/25 05:48:13;;;;;;;36.40;19.57;;;;;;;-5.81;72.50;98991.55;1691663;82;21527;-61
2022/01/25 05:50:41;;;;;;;33.75;19.32;;;;;;;-5.76;72.59;98988.44;1706119;83;21348;-61
2022/01/25 05:53:10;;;;;;;35.00;19.77;;;;;;;-5.72;72.67;98985.34;1693294;83;21015;-60
2022/01/25 05:55:38;;;;;;;32.50;19.07;;;;;;;-5.67;72.75;98982.23;1712878;82;20916;-58
2022/01/25 05:58:05;;;;;;;35.85;20.95;;;;;;;-5.61;72.88;98982.42;1697684;82;20946;-65
2022/01/25 06:00:31;;;;;;;32.55;18.62;;;;;;;-5.52;73.09;98978.48;1715851;82;20980;-64
2022/01/25 06:02:58;;;;;;;32.98;19.50;;;;;;;-5.38;72.95;98975.20;1708536;83;21127;-63
2022/01/25 06:05:25;;;;;;;33.98;19.98;;;;;;;-5.35;72.78;98977.50;1702206;83;20964;-63
2022/01/25 06:07:51;;;;;;;36.15;20.85;;;;;;;-5.34;72.95;98974.70;1708139;83;20868;-66
2022/01/25 06:10:19;;;;;;;38.02;23.32;;;;;;;-5.27;73.20;98972.23;1697590;82;20975;-61
2022/01/25 06:12:46;;;;;;;34.48;19.90;;;;;;;-5.17;73.16;98963.25;1745672;81;21026;-66
2022/01/25 06:15:13;;;;;;;42.62;23.10;;;;;;;-5.13;73.18;98957.19;1744597;81;21128;-62
2022/01/25 06:17:39;;;;;;;33.80;22.17;;;;;;;-5.16;73.04;98965.38;1715194;81;20959;-61
2022/01/25 06:20:07;;;;;;;32.35;20.45;;;;;;;-5.19;73.32;98955.26;1751673;81;20877;-61
2022/01/25 06:22:35;;;;;;;34.55;22.32;;;;;;;-5.22;73.38;98955.09;1726911;81;20965;-60
2022/01/25 06:25:02;;;;;;;34.15;20.50;;;;;;;-5.21;73.51;98948.91;1732666;80;20891;-61
2022/01/25 06:27:29;;;;;;;42.83;24.05;;;;;;;-5.23;73.63;98952.66;1735845;81;21723;-60
2022/01/25 06:29:56;;;;;;;36.42;21.73;;;;;;;-5.23;74.09;98939.09;1730568;81;20970;-61
2022/01/25 06:32:22;;;;;;;31.05;20.60;;;;;;;-5.16;74.19;98943.18;1727965;80;20919;-61
2022/01/25 06:34:49;;;;;;;35.38;20.62;;;;;;;-5.16;74.26;98944.00;1723657;81;21040;-65
2022/01/25 06:37:16;;;;;;;34.73;20.70;;;;;;;-5.15;74.42;98940.39;1728803;81;20914;-65
2022/01/25 06:39:43;;;;;;;40.43;24.77;;;;;;;-5.15;74.70;98936.95;1727911;81;21271;-60
2022/01/25 06:42:10;;;;;;;49.73;29.32;;;;;;;-5.17;75.02;98937.13;1729435;81;20877;-60
2022/01/25 06:44:38;;;;;;;33.60;21.20;;;;;;;-5.15;75.18;98935.65;1721547;81;20974;-65
2022/01/25 06:47:07;;;;;;;63.45;36.10;;;;;;;-5.13;75.47;98929.76;1742283;81;20897;-65
2022/01/25 06:49:33;;;;;;;84.58;44.90;;;;;;;-5.08;75.81;98928.77;1749205;82;21424;-63
2022/01/25 06:52:01;;;;;;;40.65;25.90;;;;;;;-5.06;76.08;98926.31;1745158;81;21124;-66
2022/01/25 06:54:28;;;;;;;48.65;27.55;;;;;;;-5.00;76.47;98915.69;1730620;81;20929;-64
2022/01/25 06:56:55;;;;;;;45.17;29.35;;;;;;;-4.92;76.58;98916.94;1742760;81;21028;-66
2022/01/25 06:59:22;;;;;;;52.50;29.77;;;;;;;-4.84;76.70;98911.70;1724884;81;21529;-66
2022/01/25 07:01:49;;;;;;;35.23;22.07;;;;;;;-4.77;76.76;98902.19;1717965;81;20934;-66
2022/01/25 07:04:15;;;;;;;35.10;19.02;;;;;;;-4.71;76.99;98900.70;1748971;81;21134;-64
2022/01/25 07:06:42;;;;;;;35.83;22.40;;;;;;;-4.64;77.07;98897.20;1749933;82;21103;-63
2022/01/25 07:09:09;;;;;;;32.10;19.25;;;;;;;-4.62;77.23;98895.26;1725578;81;21016;-60
2022/01/25 07:11:38;;;;;;;37.48;21.73;;;;;;;-4.63;77.23;98894.10;1729676;81;20922;-60
2022/01/25 07:14:05;;;;;;;47.62;27.82;;;;;;;-4.59;77.48;98890.18;1713759;81;20994;-59
2022/01/25 07:16:32;;;;;;;31.27;19.55;;;;;;;-4.54;77.59;98888.66;1726080;81;21839;-62
2022/01/25 07:18:59;;;;;;;36.45;19.65;;;;;;;-4.53;77.66;98886.38;1735615;81;20874;-60
2022/01/25 07:21:26;;;;;;;31.73;19.57;;;;;;;-4.58;77.85;98885.25;1751641;81;20925;-60
2022/01/25 07:23:57;;;;;;;48.58;26.97;;;;;;;-4.59;78.02;98882.34;1750378;82;20905;-64
2022/01/25 07:26:25;;;;;;;47.53;23.67;;;;;;;-4.56;78.20;98876.25;1752035;81;20913;-64
2022/01/25 07:28:52;;;;;;;45.45;25.92;;;;;;;-4.54;78.29;98874.76;1713594;81;21691;-65
2022/01/25 07:31:20;;;;;;;36.48;20.23;;;;;;;-4.49;78.39;98880.29;1718092;81;21012;-66
2022/01/25 07:33:47;;;;;;;43.98;26.65;;;;;;;-4.45;78.56;98881.08;1729046;81;20895;-71
2022/01/25 07:36:14;;;;;;;65.20;42.75;;;;;;;-4.44;78.50;98872.25;1712716;81;21149;-64
2022/01/25 07:38:41;;;;;;;45.15;26.07;;;;;;;-4.47;78.63;98875.20;1725209;81;21041;-63
2022/01/25 07:41:20;;;;;;;;;;;;;;;;;;;;;
2022/01/25 07:43:49;;;;;;;36.53;23.00;;;;;;;-4.44;78.86;98873.56;1712513;82;20921;-61
2022/01/25 07:46:16;;;;;;;49.25;27.73;;;;;;;-4.40;79.08;98874.83;1712378;82;20917;-61
2022/01/25 07:48:43;;;;;;;38.78;20.82;;;;;;;-4.31;79.12;98872.47;1720541;81;21681;-60
2022/01/25 07:51:10;;;;;;;54.25;31.73;;;;;;;-4.27;79.25;98872.47;1718106;82;20937;-62
2022/01/25 07:53:38;;;;;;;36.10;20.52;;;;;;;-4.22;79.40;98866.70;1711734;81;21944;-63
2022/01/25 07:56:06;;;;;;;37.00;22.17;;;;;;;-4.12;79.62;98861.23;1722281;82;20940;-63
2022/01/25 07:58:35;;;;;;;32.60;20.72;;;;;;;-4.04;79.53;98863.77;1725494;82;20992;-66
2022/01/25 08:01:02;;;;;;;36.30;21.80;;;;;;;-3.96;79.43;98870.26;1705543;82;21623;-66
2022/01/25 08:03:29;;;;;;;37.33;22.32;;;;;;;-3.95;79.44;98865.32;1681129;83;21034;-61
2022/01/25 08:05:56;;;;;;;33.63;21.25;;;;;;;-3.94;79.26;98860.42;1694332;83;21133;-66
2022/01/25 08:08:23;;;;;;;37.30;21.80;;;;;;;-3.95;79.27;98850.93;1720779;81;21117;-67
2022/01/25 08:10:51;;;;;;;35.68;21.77;;;;;;;-3.98;79.30;98856.54;1714528;80;21049;-64
2022/01/25 08:13:19;;;;;;;38.95;22.00;;;;;;;-3.95;79.33;98854.36;1746163;80;21004;-64
2022/01/25 08:15:46;;;;;;;35.08;22.10;;;;;;;-3.93;79.27;98856.83;1735055;81;21507;-60
2022/01/25 08:18:14;;;;;;;35.08;22.10;;;;;;;-3.96;79.24;98853.25;1727359;81;21124;-65
2022/01/25 08:20:40;;;;;;;43.10;24.45;;;;;;;-4.03;79.30;98853.63;1737743;80;21095;-64
2022/01/25 08:23:07;;;;;;;35.85;22.90;;;;;;;-4.07;79.57;98851.06;1716253;80;20968;-63
2022/01/25 08:25:34;;;;;;;41.63;24.20;;;;;;;-4.06;79.62;98843.52;1692120;83;20908;-65
2022/01/25 08:28:01;;;;;;;40.83;23.90;;;;;;;-4.05;79.53;98854.31;1686819;82;21497;-63
2022/01/25 08:30:29;;;;;;;35.83;23.18;;;;;;;-4.12;79.57;98852.08;1728488;81;21057;-60
2022/01/25 08:32:57;;;;;;;40.15;24.75;;;;;;;-4.16;79.80;98848.50;1706245;81;20907;-61
2022/01/25 08:35:24;;;;;;;46.88;25.23;;;;;;;-4.12;79.87;98848.16;1696953;82;20987;-60
2022/01/25 08:37:51;;;;;;;38.50;25.50;;;;;;;-4.11;79.88;98843.22;1692013;83;21057;-63
2022/01/25 08:40:18;;;;;;;45.90;27.25;;;;;;;-4.13;79.93;98839.98;1701273;82;20963;-65
2022/01/25 08:42:45;;;;;;;40.52;25.12;;;;;;;-4.14;80.09;98843.59;1661601;84;21116;-62
2022/01/25 08:45:11;;;;;;;41.88;26.30;;;;;;;-4.11;80.11;98844.53;1699351;83;20891;-62
2022/01/25 08:47:40;;;;;;;41.33;26.40;;;;;;;-4.08;80.21;98846.80;1706404;82;20966;-63
2022/01/25 08:50:17;;;;;;;49.15;28.02;;;;;;;-4.04;80.22;98838.42;1683149;83;20943;-65
2022/01/25 08:52:44;;;;;;;47.55;27.45;;;;;;;-3.96;80.23;98845.39;1691214;82;21058;-64
2022/01/25 08:55:11;;;;;;;44.55;28.05;;;;;;;-3.93;80.01;98839.30;1686982;83;21102;-66
2022/01/25 08:57:41;;;;;;;45.20;26.27;;;;;;;-3.94;79.97;98840.79;1696084;82;21031;-61
2022/01/25 09:00:12;;;;;;;46.42;28.83;;;;;;;-3.94;79.96;98836.86;1669615;83;21096;-63
2022/01/25 09:02:43;;;;;;;53.20;30.12;;;;;;;-3.98;79.94;98832.98;1669568;82;21077;-66
2022/01/25 09:05:12;;;;;;;44.60;26.87;;;;;;;-4.01;80.05;98832.84;1694825;83;21066;-62
2022/01/25 09:07:39;;;;;;;47.93;27.93;;;;;;;-3.96;80.13;98827.08;1659884;81;21717;-65
2022/01/25 09:10:08;;;;;;;44.18;28.62;;;;;;;-3.93;80.14;98831.96;1711154;81;20978;-65
2022/01/25 09:12:36;;;;;;;54.35;29.48;;;;;;;-3.92;80.13;98825.72;1697319;81;20942;-59
2022/01/25 09:15:06;;;;;;;47.23;30.55;;;;;;;-3.91;80.08;98811.66;1696946;81;20911;-60
2022/01/25 09:17:33;;;;;;;49.75;30.52;;;;;;;-3.90;80.06;98810.64;1688915;81;21577;-65
2022/01/25 09:20:02;;;;;;;49.90;30.70;;;;;;;-3.88;80.16;98795.08;1674602;84;21194;-63
2022/01/25 09:22:28;;;;;;;46.90;29.15;;;;;;;-3.83;80.14;98789.30;1696407;84;20953;-59
2022/01/25 09:24:55;;;;;;;49.42;29.30;;;;;;;-3.78;80.09;98792.20;1689909;84;21570;-60
2022/01/25 09:27:22;;;;;;;50.83;30.20;;;;;;;-3.73;80.14;98788.55;1697919;84;21054;-64
2022/01/25 09:29:48;;;;;;;53.52;30.80;;;;;;;-3.68;80.04;98792.75;1700470;82;21860;-65
2022/01/25 09:32:15;;;;;;;49.73;30.62;;;;;;;-3.66;80.05;98776.36;1710004;82;21187;-64
2022/01/25 09:34:42;;;;;;;54.58;30.80;;;;;;;-3.63;80.04;98767.63;1688622;83;20969;-60
2022/01/25 09:37:09;;;;;;;51.40;31.87;;;;;;;-3.53;80.12;98769.98;1677139;84;21178;-60
2022/01/25 09:39:37;;;;;;;55.58;31.68;;;;;;;-3.43;79.89;98771.83;1684685;84;21131;-60
2022/01/25 09:42:08;;;;;;;56.48;31.30;;;;;;;-3.36;79.76;98772.72;1685600;84;20980;-60
2022/01/25 09:44:36;;;;;;;48.95;31.37;;;;;;;-3.34;79.66;98760.25;1678653;82;21390;-61
2022/01/25 09:47:05;;;;;;;48.00;30.10;;;;;;;-3.33;79.60;98769.75;1707336;81;21117;-69
2022/01/25 09:49:35;;;;;;;53.10;31.30;;;;;;;-3.34;79.61;98768.63;1689406;82;21067;-69
2022/01/25 09:52:04;;;;;;;48.08;30.88;;;;;;;-3.35;79.62;98766.50;1713816;81;21107;-64
2022/01/25 09:54:33;;;;;;;51.08;31.27;;;;;;;-3.31;79.72;98759.89;1689166;82;21182;-62
2022/01/25 09:57:01;;;;;;;47.45;31.15;;;;;;;-3.27;79.72;98755.89;1704106;81;21143;-62
2022/01/25 09:59:29;;;;;;;49.58;31.07;;;;;;;-3.22;79.78;98757.47;1675328;83;21013;-61
2022/01/25 10:01:56;;;;;;;51.18;30.80;;;;;;;-3.14;79.82;98752.63;1681114;83;20972;-65
2022/01/25 10:04:33;;;;;;;48.15;30.52;;;;;;;-3.03;79.86;98751.64;1708658;82;20985;-59
2022/01/25 10:06:59;;;;;;;53.28;33.13;;;;;;;-2.91;79.65;98748.84;1695904;84;20882;-64
2022/01/25 10:09:29;;;;;;;52.30;31.80;;;;;;;-2.87;79.57;98743.54;1687726;84;21126;-65
2022/01/25 10:11:56;;;;;;;51.83;31.60;;;;;;;-2.85;79.51;98742.84;1707175;82;20971;-62
2022/01/25 10:14:25;;;;;;;51.33;32.17;;;;;;;-2.82;79.59;98734.62;1722721;81;20991;-61
2022/01/25 10:16:53;;;;;;;54.55;31.57;;;;;;;-2.81;79.58;98736.75;1723597;81;20984;-62
2022/01/25 10:19:25;;;;;;;54.42;31.95;;;;;;;-2.82;79.62;98734.62;1727538;81;21100;-59
2022/01/25 10:21:53;;;;;;;55.85;33.80;;;;;;;-2.91;79.71;98727.06;1734307;80;21124;-66
2022/01/25 10:24:24;;;;;;;50.00;31.20;;;;;;;-2.93;80.00;98721.20;1737050;81;21391;-61
2022/01/25 10:27:02;;;;;;;51.63;31.42;;;;;;;-2.96;80.08;98715.01;1727965;81;20927;-62
2022/01/25 10:29:34;;;;;;;54.60;31.82;;;;;;;-2.95;80.17;98716.16;1683872;83;20881;-60
2022/01/25 10:32:05;;;;;;;56.77;34.63;;;;;;;-2.93;80.30;98707.59;1672743;84;21398;-66
2022/01/25 10:34:44;;;;;;;56.02;33.20;;;;;;;-2.89;80.43;98706.22;1658336;84;21168;-59
2022/01/25 10:37:15;;;;;;;58.02;34.43;;;;;;;-2.81;80.64;98708.72;1702654;82;21009;-62
2022/01/25 10:39:45;;;;;;;56.65;35.15;;;;;;;-2.73;80.60;98699.10;1698458;81;21444;-59
2022/01/25 10:42:24;;;;;;;54.30;34.25;;;;;;;-2.70;80.76;98698.70;1711050;82;20916;-64
2022/01/25 10:44:54;;;;;;;56.20;34.65;;;;;;;-2.64;80.89;98692.72;1698897;81;21562;-63
2022/01/25 10:47:45;;;;;;;54.35;33.95;;;;;;;-2.52;80.84;98684.66;1680316;82;21102;-60
2022/01/25 10:50:26;;;;;;;55.48;34.38;;;;;;;-2.47;80.80;98686.20;1700949;82;20887;-65
2022/01/25 10:53:15;;;;;;;60.67;35.95;;;;;;;-2.49;80.86;98677.20;1695694;82;21077;-64
2022/01/25 10:55:46;;;;;;;57.85;35.20;;;;;;;-2.50;81.06;98673.46;1681284;82;21445;-63
2022/01/25 10:58:14;;;;;;;58.05;36.03;;;;;;;-2.45;81.48;98672.39;1698729;82;21427;-60
2022/01/25 11:00:44;;;;;;;61.28;37.38;;;;;;;-2.49;81.55;98679.00;1727065;82;21119;-63
2022/01/25 11:03:12;;;;;;;62.08;38.08;;;;;;;-2.57;81.63;98679.16;1689346;82;21095;-63
2022/01/25 11:05:43;;;;;;;63.75;39.05;;;;;;;-2.63;81.81;98674.16;1666794;81;20943;-60
2022/01/25 11:08:16;;;;;;;65.60;37.28;;;;;;;-2.68;82.47;98667.86;1701380;81;20980;-67
2022/01/25 11:10:57;;;;;;;60.98;36.60;;;;;;;-2.64;82.58;98669.94;1650972;85;20965;-63
2022/01/25 11:16:02;;;;;;;60.12;36.63;;;;;;;-2.64;83.29;98663.88;1723279;80;20941;-65
2022/01/25 11:18:30;;;;;;;68.35;38.50;;;;;;;-2.63;83.44;98666.79;1727555;81;21542;-60
2022/01/25 11:21:00;;;;;;;57.75;34.83;;;;;;;-2.62;83.57;98663.17;1662429;83;21177;-62
2022/01/25 11:23:33;;;;;;;59.70;36.95;;;;;;;-2.59;83.81;98651.00;1710316;81;21050;-60
2022/01/25 11:26:02;;;;;;;55.55;35.68;;;;;;;-2.56;83.95;98655.35;1732091;81;21106;-68
2022/01/25 11:28:36;;;;;;;57.58;35.50;;;;;;;-2.51;83.97;98642.97;1720705;81;21432;-63
2022/01/25 11:31:09;;;;;;;57.88;34.67;;;;;;;-2.45;84.03;98640.91;1724772;81;21673;-68
2022/01/25 11:33:43;;;;;;;62.40;35.63;;;;;;;-2.37;83.93;98640.75;1710980;82;21004;-63
2022/01/25 11:36:10;;;;;;;59.63;35.48;;;;;;;-2.31;83.94;98636.84;1728001;81;21047;-61
2022/01/25 11:38:47;;;;;;;57.48;36.45;;;;;;;-2.24;83.80;98635.07;1732630;81;21165;-63
2022/01/25 11:41:17;;;;;;;67.45;37.63;;;;;;;-2.22;83.77;98630.96;1691325;83;20920;-63
2022/01/25 11:43:47;;;;;;;59.27;35.63;;;;;;;-2.18;83.74;98625.62;1642650;83;21009;-66
2022/01/25 11:46:13;;;;;;;67.40;36.73;;;;;;;-2.18;83.61;98613.32;1728737;81;21083;-61
2022/01/25 11:48:43;;;;;;;62.15;39.42;;;;;;;-2.13;83.55;98611.42;1712991;81;20977;-60
2022/01/25 11:51:18;;;;;;;106.65;95.45;;;;;;;-2.16;83.31;98605.23;1720908;81;21464;-61
2022/01/25 11:53:48;;;;;;;1052.98;547.30;;;;;;;-2.21;83.45;98607.14;1701238;82;20973;-63
2022/01/25 11:56:15;;;;;;;1999.90;999.90;;;;;;;-2.18;83.50;98609.88;1717081;81;20950;-65
2022/01/25 11:58:41;;;;;;;1999.90;999.90;;;;;;;-2.12;83.42;98603.87;1735185;81;21464;-60
2022/01/25 12:01:20;;;;;;;65.50;39.23;;;;;;;-2.02;83.37;98602.98;1729291;81;20911;-59
2022/01/25 12:03:51;;;;;;;65.78;39.58;;;;;;;-1.98;83.28;98600.80;1742040;81;22178;-63
2022/01/25 12:06:29;;;;;;;63.70;39.33;;;;;;;-1.95;83.28;98597.75;1724729;82;20991;-63
2022/01/25 12:09:18;;;;;;;70.47;39.42;;;;;;;-1.91;83.16;98591.94;1714595;81;20932;-61
2022/01/25 12:12:07;;;;;;;67.42;39.98;;;;;;;-1.87;83.08;98583.97;1700685;81;20979;-60
2022/01/25 12:14:49;;;;;;;72.08;40.15;;;;;;;-1.85;83.27;98583.27;1682473;83;21012;-59
2022/01/25 12:17:19;;;;;;;66.45;39.73;;;;;;;-1.73;83.33;98579.56;1734269;81;21187;-61
2022/01/25 12:19:57;;;;;;;69.00;41.92;;;;;;;-1.67;83.07;98573.02;1747640;81;20918;-65
2022/01/25 12:22:36;;;;;;;73.30;40.88;;;;;;;-1.65;83.13;98572.83;1714668;81;21098;-58
2022/01/25 12:25:23;;;;;;;67.37;40.78;;;;;;;-1.65;83.21;98567.05;1736926;81;20890;-63
2022/01/25 12:27:59;;;;;;;69.87;41.18;;;;;;;-1.61;83.17;98569.61;1744779;81;20967;-61
2022/01/25 12:30:39;;;;;;;70.03;40.60;;;;;;;-1.66;83.55;98575.95;1750494;81;21790;-59
2022/01/25 12:33:24;;;;;;;65.62;40.58;;;;;;;-1.73;83.86;98573.81;1712278;82;20937;-63
2022/01/25 12:36:00;;;;;;;71.20;40.70;;;;;;;-1.73;83.91;98574.31;1728733;81;21403;-62
2022/01/25 12:38:41;;;;;;;;;;;;;;;-1.67;84.07;98566.44;1734904;81;20934;-59
2022/01/25 12:41:13;;;;;;;63.90;38.58;;;;;;;-1.56;84.15;98561.13;1691962;82;20414;-63
2022/01/25 12:43:51;;;;;;;66.17;40.60;;;;;;;-1.46;84.09;98563.66;1699827;81;21162;-59
2022/01/25 12:46:27;;;;;;;65.65;39.78;;;;;;;-1.43;83.88;98556.70;1712209;81;20975;-62
2022/01/25 12:49:04;;;;;;;56.70;38.30;;;;;;;-1.42;83.87;98561.45;1705586;83;20923;-63
2022/01/25 12:51:36;;;;;;;58.30;36.28;;;;;;;-1.43;83.72;98558.51;1694172;82;20933;-63
2022/01/25 12:54:06;;;;;;;61.42;38.67;;;;;;;-1.49;83.72;98543.06;1669287;83;21509;-59
2022/01/25 12:56:42;;;;;;;56.48;39.08;;;;;;;-1.54;83.84;98545.47;1728504;82;21451;-60
2022/01/25 12:59:24;;;;;;;63.50;42.15;;;;;;;-1.57;83.95;98544.55;1728370;81;21467;-60
2022/01/25 13:01:52;;;;;;;64.90;40.50;;;;;;;-1.52;84.04;98544.77;1718757;82;21103;-63
2022/01/25 13:04:19;;;;;;;65.72;41.90;;;;;;;-1.48;84.02;98540.72;1719906;80;20903;-62
2022/01/25 13:06:50;;;;;;;65.78;40.48;;;;;;;-1.57;84.12;98543.23;1752551;80;21051;-59